Yachats, OR

11:58 AM PST on February 24, 2017 (GMT -0800)
Stormwatcher's Retreat | | Change Station

Elev 26 ft 44.31 °N, 124.11 °W | Updated 3 minutes ago

Overcast
Overcast
42.3 °F
Feels Like 39 °F
N
6.0
Wind Variable Wind from ENE
Gusts 8.0 mph

Today
High -- | Low -- °F
--% Chance of Precip.
Yesterday
High -- | Low -- °F
Precip. -- in
Pressure 30.17 in
Visibility 10.0 miles
Clouds Scattered Clouds 3100 ft
Mostly Cloudy 6000 ft
Overcast 8500 ft
Windchill 39 °F
Dew Point 38 °F
Humidity 85%
Rainfall 0.09 in
Snow Depth Not available.
7:01 AM 5:58 PM
Waning Crescent, 4% visible
METAR KONP 241915Z AUTO 14006KT 10SM SCT031 BKN060 OVC085 03/02 A3017 RMK AO2
Pressure 30.17 in
Visibility 10.0 miles
Clouds Scattered Clouds 3100 ft
Mostly Cloudy 6000 ft
Overcast 8500 ft
Windchill 39 °F
Dew Point 38 °F
Humidity 85%
Rainfall 0.09 in
Snow Depth Not available.
7:01 AM 5:58 PM
Waning Crescent, 4% visible
METAR KONP 241915Z AUTO 14006KT 10SM SCT031 BKN060 OVC085 03/02 A3017 RMK AO2

Get Your Daily Forecast Email!

Thanks for signing up!

Be on the lookout for a verification email in your inbox.

You'll start receiving the daily forecast at 8 AM.

×

10-Day Weather Forecast

Almanac

Astronomy

Feb. 24, 2017 Rise Set
Actual Time
Civil Twilight
Nautical Twilight
Astronomical Twilight
Moon
Length of Visible Light
Length of Day
Tomorrow will be .
, % of the Moon is Illuminated

Today's Extremes

State Highs State Lows

Community

WunderPhotos

Upload Photos

1,962,540 photos uploaded!

WunderBlog® & News

Nearby

Air Quality

  Air Quality AQ Index Pollutant
Not available.

Snow Depth

Station Depth Elevation

Earthquake Activity

City Distance Mag. Time & Date
Minimum magnitude displayed is 2.5.

Coastal Water Temperatures

Place Temperature

Stations

Nearby Weather Stations

Station Location Temp. Windchill Dew Point Humidity Wind Precip. Elev Updated Type
                   

Watches & Warnings

There are currently no watches in effect.